Time;durP1;ratioP1;P1;durP2;ratioP2;P2;SDS_P1;SDS_P2;PMS_P1;PMS_P2;Temp;Humidity;BMP_temperature;BMP_pressure;BME280_temperature;BME280_humidity;BME280_pressure;Samples;Min_cycle;Max_cycle;Signal;HPM_P1;HPM_P2
2023/03/22 00:01:24;;;;;;;3.63;3.23;;;;;;;10.72;93.00;94502.38;5013727;28;20183;-78
2023/03/22 00:03:51;;;;;;;4.00;2.83;;;;;;;10.65;92.66;94491.13;5013519;28;20192;-79
2023/03/22 00:06:17;;;;;;;6.30;3.30;;;;;;;10.69;92.21;94500.19;5013562;28;20191;-79
2023/03/22 00:08:43;;;;;;;4.40;3.27;;;;;;;10.68;92.33;94503.84;5013295;28;20199;-78
2023/03/22 00:11:10;;;;;;;5.80;3.57;;;;;;;10.70;92.27;94498.38;4996166;28;20192;-79
2023/03/22 00:13:36;;;;;;;3.57;2.97;;;;;;;10.72;92.52;94498.97;4995680;28;20172;-79
2023/03/22 00:16:04;;;;;;;5.60;3.47;;;;;;;10.75;92.40;94498.50;5013293;28;20210;-78
2023/03/22 00:18:30;;;;;;;5.27;3.50;;;;;;;10.77;92.55;94499.09;4995825;28;20196;-79
2023/03/22 00:20:57;;;;;;;5.57;3.90;;;;;;;10.51;92.87;94464.16;5012916;28;20218;-78
2023/03/22 00:23:24;;;;;;;5.60;4.03;;;;;;;10.77;93.21;94499.09;5012910;28;20176;-79
2023/03/22 00:25:50;;;;;;;9.07;4.87;;;;;;;10.70;93.09;94491.28;4995146;28;20187;-79
2023/03/22 00:28:15;;;;;;;5.57;4.17;;;;;;;10.71;93.26;94495.53;5013231;28;20263;-78
2023/03/22 00:30:42;;;;;;;8.73;5.87;;;;;;;10.72;93.79;94489.22;5012801;28;20645;-78
2023/03/22 00:33:07;;;;;;;10.37;6.57;;;;;;;10.67;93.92;94483.00;5013418;28;20176;-78
2023/03/22 00:35:33;;;;;;;8.80;5.57;;;;;;;10.74;94.02;94495.06;5013088;28;20663;-78
2023/03/22 00:38:12;;;;;;;10.00;6.63;;;;;;;10.67;93.97;94494.34;5013239;28;20164;-78
2023/03/22 00:40:39;;;;;;;10.03;6.47;;;;;;;10.63;93.49;94487.13;5013080;28;20167;-78
2023/03/22 00:43:04;;;;;;;14.07;7.63;;;;;;;10.48;93.87;94474.31;5012686;28;20262;-78
2023/03/22 00:45:30;;;;;;;11.23;7.57;;;;;;;10.58;94.39;94485.13;5013073;28;20200;-78
2023/03/22 00:47:55;;;;;;;12.60;7.87;;;;;;;10.54;94.76;94487.41;5011321;28;20423;-78
2023/03/22 00:50:20;;;;;;;11.30;6.80;;;;;;;10.54;94.92;94478.72;5011539;28;20209;-78
2023/03/22 00:52:46;;;;;;;8.40;6.57;;;;;;;10.51;94.91;94474.69;4994625;28;20789;-77
2023/03/22 00:55:11;;;;;;;11.53;6.30;;;;;;;10.57;94.56;94483.50;5012208;28;20689;-78
2023/03/22 00:57:36;;;;;;;11.13;7.77;;;;;;;10.55;94.94;94483.72;5010907;28;20434;-78
2023/03/22 01:00:12;;;;;;;8.97;6.10;;;;;;;10.60;94.45;94483.09;5012450;28;20203;-78
2023/03/22 01:02:40;;;;;;;8.70;6.20;;;;;;;10.55;94.51;94477.69;5012491;28;20212;-78
2023/03/22 01:05:06;;;;;;;8.13;6.87;;;;;;;10.51;94.43;94465.97;5012531;28;20180;-78
2023/03/22 01:07:32;;;;;;;14.30;8.60;;;;;;;10.50;94.07;94467.81;5012157;28;20168;-78
2023/03/22 01:09:57;;;;;;;12.23;8.27;;;;;;;10.52;94.34;94478.91;5012032;28;20184;-78
2023/03/22 01:12:23;;;;;;;14.93;8.30;;;;;;;10.39;94.60;94465.09;5011685;28;20187;-77
2023/03/22 01:14:48;;;;;;;14.60;10.07;;;;;;;10.17;94.97;94467.31;5010473;28;20435;-78
2023/03/22 01:17:14;;;;;;;14.10;9.90;;;;;;;9.76;96.04;94452.94;5010546;28;20418;-78
2023/03/22 01:19:39;;;;;;;23.90;15.63;;;;;;;9.72;97.09;94467.53;5010306;28;20414;-78
2023/03/22 01:22:06;;;;;;;11.40;7.73;;;;;;;9.72;97.89;94458.81;5010512;28;20422;-78
2023/03/22 01:24:31;;;;;;;11.30;6.80;;;;;;;9.99;96.95;94467.28;5011918;28;20255;-78
2023/03/22 01:26:57;;;;;;;9.37;6.23;;;;;;;9.95;96.20;94445.88;5012398;28;20262;-78
2023/03/22 01:29:24;;;;;;;12.47;6.10;;;;;;;10.10;95.65;94454.25;5012534;28;20319;-78
2023/03/22 01:31:50;;;;;;;10.20;7.43;;;;;;;10.24;95.60;94472.53;4995400;28;20191;-78
2023/03/22 01:34:15;;;;;;;14.07;7.37;;;;;;;10.28;95.61;94468.47;5012269;28;20192;-78
2023/03/22 01:36:41;;;;;;;14.53;8.33;;;;;;;10.32;95.09;94459.91;5012138;28;20627;-78
2023/03/22 01:39:07;;;;;;;16.40;9.23;;;;;;;10.29;95.13;94449.81;5012469;28;20188;-78
2023/03/22 01:41:33;;;;;;;18.70;9.17;;;;;;;10.36;95.06;94458.47;5012054;28;20569;-78
2023/03/22 01:44:18;;;;;;;15.53;8.87;;;;;;;10.40;94.81;94459.59;4994420;28;20180;-78
2023/03/22 01:46:46;;;;;;;16.13;10.37;;;;;;;10.28;94.37;94442.16;5011979;28;20188;-78
2023/03/22 01:49:18;;;;;;;15.75;10.77;;;;;;;10.33;94.98;94465.97;5010223;28;20419;-78
2023/03/22 01:51:45;;;;;;;12.73;8.53;;;;;;;10.27;94.90;94438.72;5004934;28;20232;-78
2023/03/22 01:54:16;;;;;;;10.03;7.03;;;;;;;10.17;94.67;94425.25;4992330;28;20291;-78
2023/03/22 01:56:41;;;;;;;7.33;5.63;;;;;;;10.22;94.18;94430.66;5004644;28;20180;-78
2023/03/22 01:59:11;;;;;;;8.23;6.18;;;;;;;10.24;94.18;94456.75;5002778;28;20455;-78
2023/03/22 02:01:37;;;;;;;6.43;5.43;;;;;;;9.95;94.21;94418.78;4987286;28;20184;-78
2023/03/22 02:04:11;;;;;;;7.80;6.30;;;;;;;10.05;94.95;94442.75;5005646;28;20844;-78
2023/03/22 02:06:38;;;;;;;6.77;5.00;;;;;;;10.24;94.85;94456.75;4989453;28;20619;-77
2023/03/22 02:09:05;;;;;;;7.67;5.53;;;;;;;10.31;94.67;94462.75;4999184;28;20223;-78
2023/03/22 02:11:34;;;;;;;6.43;5.37;;;;;;;10.30;94.71;94461.13;5004763;28;20263;-78
2023/03/22 02:14:58;;;;;;;8.63;5.73;;;;;;;10.33;94.67;94460.72;5004515;28;20205;-78
2023/03/22 02:17:39;;;;;;;7.53;5.77;;;;;;;10.25;94.39;94448.66;4948836;29;20552;-78
2023/03/22 02:20:16;;;;;;;13.83;6.90;;;;;;;10.32;94.33;94456.47;4945470;29;20568;-78
2023/03/22 02:23:29;;;;;;;8.63;6.63;;;;;;;10.34;94.49;94454.44;4998322;28;20210;-78
2023/03/22 02:26:32;;;;;;;6.63;5.20;;;;;;;10.38;94.25;94456.38;5003638;28;20224;-78
2023/03/22 02:29:07;;;;;;;8.37;5.17;;;;;;;10.37;94.11;94459.25;5001044;28;20191;-78
2023/03/22 02:31:52;;;;;;;8.47;5.00;;;;;;;10.31;93.83;94453.03;4995276;28;20184;-78
2023/03/22 02:34:36;;;;;;;6.83;4.50;;;;;;;10.38;93.55;94464.28;4999806;28;20235;-78
2023/03/22 02:37:10;;;;;;;6.93;5.23;;;;;;;10.40;92.81;94467.50;5015117;28;20184;-78
2023/03/22 02:39:41;;;;;;;7.17;4.47;;;;;;;10.34;92.72;94462.31;5014937;28;20180;-78
2023/03/22 02:42:19;;;;;;;6.13;4.03;;;;;;;10.29;93.20;94459.56;4997063;28;20449;-78
2023/03/22 02:45:19;;;;;;;6.07;4.88;;;;;;;10.26;93.00;94470.50;5013309;28;20410;-78
2023/03/22 02:48:07;;;;;;;8.68;5.57;;;;;;;10.16;93.55;94471.78;4989886;28;20438;-78
2023/03/22 02:50:32;;;;;;;7.17;5.27;;;;;;;10.17;93.79;94470.78;5014261;28;20194;-78
2023/03/22 02:53:08;;;;;;;5.63;4.53;;;;;;;10.14;93.42;94478.25;5016690;28;20176;-78
2023/03/22 02:55:54;;;;;;;10.48;6.85;;;;;;;10.13;93.59;94476.66;4998162;28;20939;-78
2023/03/22 02:58:28;;;;;;;11.67;7.70;;;;;;;10.24;93.49;94475.97;5004829;28;20195;-78
2023/03/22 03:01:00;;;;;;;9.70;5.70;;;;;;;10.29;93.12;94478.75;5023285;28;20176;-78
2023/03/22 03:03:29;;;;;;;6.47;4.13;;;;;;;10.28;93.26;94479.78;5016876;28;20210;-78
2023/03/22 03:05:59;;;;;;;6.30;5.00;;;;;;;10.27;93.15;94483.44;5016751;28;20180;-78
2023/03/22 03:08:26;;;;;;;5.23;4.43;;;;;;;10.14;93.24;94454.59;5015484;28;20565;-78
2023/03/22 03:10:53;;;;;;;5.20;4.13;;;;;;;10.23;93.62;94477.00;4994895;28;20656;-78
2023/03/22 03:13:18;;;;;;;6.33;4.70;;;;;;;10.24;94.23;94473.34;5004187;28;20173;-78
2023/03/22 03:15:51;;;;;;;7.33;5.07;;;;;;;10.06;94.42;94452.25;5015413;28;20680;-78
2023/03/22 03:18:31;;;;;;;7.23;5.00;;;;;;;10.20;94.50;94474.81;5007614;28;20185;-78
2023/03/22 03:21:20;;;;;;;7.50;5.27;;;;;;;10.19;94.60;94476.63;5016927;28;20267;-78
2023/03/22 03:24:10;;;;;;;8.87;5.63;;;;;;;10.19;94.53;94479.28;5009599;28;20247;-78
2023/03/22 03:27:16;;;;;;;8.20;5.20;;;;;;;10.19;94.55;94479.28;5015967;28;20471;-78
2023/03/22 03:29:50;;;;;;;7.53;4.93;;;;;;;10.08;94.38;94463.38;5016200;28;20176;-78
2023/03/22 03:32:34;;;;;;;7.00;4.97;;;;;;;10.13;93.94;94466.94;5016233;28;20171;-78
2023/03/22 03:35:09;;;;;;;9.53;5.53;;;;;;;10.23;93.71;94482.25;5033736;28;20195;-78
2023/03/22 03:37:47;;;;;;;8.67;4.83;;;;;;;10.19;93.45;94483.72;5032627;28;20175;-78
2023/03/22 03:40:36;;;;;;;7.03;4.67;;;;;;;10.17;93.41;94489.19;5016154;28;20190;-78
2023/03/22 03:43:03;;;;;;;6.57;4.20;;;;;;;10.17;92.72;94491.81;5016443;28;20179;-78
2023/03/22 03:45:30;;;;;;;6.80;4.55;;;;;;;10.14;92.86;94486.16;5015082;28;20417;-78
2023/03/22 03:48:02;;;;;;;6.53;4.20;;;;;;;9.89;92.69;94454.63;5033766;28;20187;-78
2023/03/22 03:50:27;;;;;;;6.20;4.03;;;;;;;10.16;92.48;94484.91;5013300;28;20206;-78
2023/03/22 03:52:54;;;;;;;5.87;3.67;;;;;;;10.20;92.64;94495.84;5011551;28;20667;-78
2023/03/22 03:55:21;;;;;;;5.57;3.30;;;;;;;10.21;92.37;94494.81;5011390;28;20580;-78
2023/03/22 03:57:47;;;;;;;4.97;3.20;;;;;;;10.15;92.67;94487.75;5011333;28;20192;-78
2023/03/22 04:00:13;;;;;;;3.80;3.40;;;;;;;10.18;92.62;94501.34;5011761;28;20184;-78
2023/03/22 04:02:40;;;;;;;4.25;3.63;;;;;;;10.03;92.95;94479.78;5001664;28;20420;-78
2023/03/22 04:05:06;;;;;;;6.20;4.30;;;;;;;10.14;93.05;94504.56;5002371;28;20629;-78
2023/03/22 04:07:33;;;;;;;9.40;5.03;;;;;;;10.15;92.98;94501.72;5004839;28;20176;-78
2023/03/22 04:09:58;;;;;;;6.60;5.03;;;;;;;10.15;92.70;94506.97;5005918;28;20235;-78
2023/03/22 04:12:24;;;;;;;8.93;5.07;;;;;;;10.20;93.16;94509.78;5010991;28;20269;-78
2023/03/22 04:14:49;;;;;;;6.90;4.50;;;;;;;10.19;93.03;94516.09;4993300;28;20205;-78
2023/03/22 04:17:14;;;;;;;8.10;5.10;;;;;;;10.19;92.88;94515.28;5012345;28;20689;-78
2023/03/22 04:19:41;;;;;;;6.50;5.07;;;;;;;10.18;92.69;94514.47;5015278;28;20768;-78
2023/03/22 04:22:13;;;;;;;6.33;4.77;;;;;;;10.19;92.80;94512.66;5020769;28;20180;-78
2023/03/22 04:24:42;;;;;;;7.03;5.00;;;;;;;10.17;93.21;94509.41;4997468;28;20408;-78
2023/03/22 04:27:08;;;;;;;12.07;6.75;;;;;;;9.92;93.18;94491.03;5013490;28;20421;-78
2023/03/22 04:29:35;;;;;;;7.18;5.03;;;;;;;9.99;92.93;94504.91;5027259;28;20423;-78
2023/03/22 04:32:04;;;;;;;5.37;3.80;;;;;;;9.94;92.45;94488.19;5001736;28;20173;-79
2023/03/22 04:34:30;;;;;;;5.97;3.90;;;;;;;10.00;92.71;94508.34;5010786;28;20211;-79
2023/03/22 04:36:56;;;;;;;8.37;4.97;;;;;;;9.92;93.31;94512.06;5010862;28;20561;-78
2023/03/22 04:39:22;;;;;;;6.57;4.10;;;;;;;9.81;93.53;94495.16;5003847;28;20259;-78
2023/03/22 04:41:47;;;;;;;7.72;5.65;;;;;;;9.96;93.65;94515.03;5027580;28;20495;-78
2023/03/22 04:44:13;;;;;;;7.47;5.73;;;;;;;10.02;93.71;94522.91;5012171;28;20251;-78
2023/03/22 04:46:38;;;;;;;9.70;5.90;;;;;;;9.90;94.07;94494.88;5017653;28;20184;-78
2023/03/22 04:49:05;;;;;;;9.57;5.60;;;;;;;10.00;93.33;94508.34;5003508;28;20208;-79
2023/03/22 04:51:30;;;;;;;9.80;6.87;;;;;;;9.84;93.94;94499.97;4990945;28;20467;-77
2023/03/22 04:53:57;;;;;;;7.15;5.55;;;;;;;10.04;93.23;94526.09;4992094;28;20997;-77
2023/03/22 04:56:24;;;;;;;9.77;5.30;;;;;;;9.99;93.46;94523.31;5017937;28;20199;-77
2023/03/22 04:58:49;;;;;;;8.50;5.70;;;;;;;9.70;93.74;94477.44;5014441;28;20176;-77
2023/03/22 05:01:17;;;;;;;7.50;6.00;;;;;;;9.84;93.93;94530.72;4995543;28;20417;-77
2023/03/22 05:03:47;;;;;;;7.40;5.47;;;;;;;9.57;95.52;94532.72;5005556;28;20418;-78
2023/03/22 05:06:13;;;;;;;5.50;4.40;;;;;;;9.56;95.61;94532.94;5012017;28;20211;-79
2023/03/22 05:08:39;;;;;;;5.03;3.87;;;;;;;9.40;96.13;94518.50;5025420;28;20455;-79
2023/03/22 05:11:10;;;;;;;3.70;3.07;;;;;;;9.60;95.53;94526.25;5012235;28;20422;-79
2023/03/22 05:13:36;;;;;;;4.75;3.40;;;;;;;9.62;95.47;94529.44;5009167;28;20412;-81
2023/03/22 05:16:03;;;;;;;3.93;3.20;;;;;;;9.75;95.49;94538.06;5001154;28;20184;-79
2023/03/22 05:18:29;;;;;;;5.23;3.30;;;;;;;9.74;94.99;94519.88;5012610;28;20181;-77
2023/03/22 05:20:56;;;;;;;4.43;3.23;;;;;;;9.97;95.02;94548.19;5005886;28;20608;-78
2023/03/22 05:23:22;;;;;;;5.33;4.27;;;;;;;9.92;94.65;94529.66;5005283;28;20173;-78
2023/03/22 05:25:49;;;;;;;5.57;4.23;;;;;;;10.10;93.97;94553.38;5024525;28;20179;-78
2023/03/22 05:28:18;;;;;;;5.77;4.63;;;;;;;10.14;93.55;94550.06;5013411;28;20611;-78
2023/03/22 05:30:44;;;;;;;10.48;9.43;;;;;;;9.98;93.42;94548.00;4998529;28;20417;-78
2023/03/22 05:33:10;;;;;;;11.82;9.98;;;;;;;10.02;93.89;94543.94;5001915;28;20535;-78
2023/03/22 05:35:38;;;;;;;10.47;8.37;;;;;;;10.19;93.79;94555.56;5008150;28;20717;-78
2023/03/22 05:38:05;;;;;;;8.63;6.05;;;;;;;10.16;93.43;94540.16;4996592;28;20911;-78
2023/03/22 05:40:31;;;;;;;8.60;5.43;;;;;;;10.21;92.98;94561.38;5014868;28;20203;-78
2023/03/22 05:42:56;;;;;;;5.77;4.97;;;;;;;10.28;92.76;94561.34;5019028;28;20651;-78
2023/03/22 05:45:22;;;;;;;4.50;3.50;;;;;;;10.30;92.84;94563.72;5009145;28;20206;-78
2023/03/22 05:47:48;;;;;;;4.70;4.00;;;;;;;10.28;92.46;94552.66;5011014;28;20188;-77
2023/03/22 05:50:18;;;;;;;4.97;4.05;;;;;;;10.33;92.41;94564.13;5012319;28;20451;-79
2023/03/22 05:52:44;;;;;;;5.63;4.23;;;;;;;10.32;92.62;94551.97;5015898;28;20215;-79
2023/03/22 05:55:12;;;;;;;5.30;4.30;;;;;;;10.40;92.50;94567.50;5016689;28;20675;-80
2023/03/22 05:57:39;;;;;;;7.23;4.93;;;;;;;10.43;92.54;94569.69;5028618;28;20181;-80
2023/03/22 06:00:12;;;;;;;5.50;4.20;;;;;;;10.48;92.39;94576.94;5013771;28;20176;-82
2023/03/22 06:02:43;;;;;;;5.83;3.77;;;;;;;10.42;92.18;94559.38;5012660;28;20194;-79
2023/03/22 06:05:11;;;;;;;4.17;3.43;;;;;;;10.25;92.46;94545.16;5020788;28;20422;-79
2023/03/22 06:07:37;;;;;;;4.53;3.53;;;;;;;10.48;92.03;94575.09;5017228;28;20430;-79
2023/03/22 06:10:05;;;;;;;4.03;3.50;;;;;;;10.43;92.10;94564.44;5020039;28;20176;-79
2023/03/22 06:12:31;;;;;;;4.43;3.63;;;;;;;10.49;92.48;94568.00;5015174;28;20634;-78
2023/03/22 06:14:57;;;;;;;7.80;4.87;;;;;;;10.52;92.86;94560.50;5020005;28;20210;-78
2023/03/22 06:17:23;;;;;;;6.57;5.33;;;;;;;10.65;92.57;94579.81;5026655;28;20172;-79
2023/03/22 06:19:49;;;;;;;7.60;5.77;;;;;;;10.60;92.12;94562.03;5000994;28;20188;-79
2023/03/22 06:22:15;;;;;;;5.97;4.73;;;;;;;10.80;91.39;94588.97;4978496;28;20657;-79
2023/03/22 06:24:41;;;;;;;5.77;4.60;;;;;;;10.83;91.15;94587.72;5019725;28;20180;-79
2023/03/22 06:27:08;;;;;;;6.77;5.23;;;;;;;10.85;91.13;94583.84;5025011;28;20647;-79
2023/03/22 06:29:33;;;;;;;6.60;5.47;;;;;;;10.90;91.12;94586.63;5016150;28;20274;-79
2023/03/22 06:31:59;;;;;;;17.67;11.07;;;;;;;10.96;91.42;94587.59;5001139;28;20271;-77
2023/03/22 06:34:25;;;;;;;11.53;10.03;;;;;;;10.99;91.00;94587.13;5034613;28;20202;-79
2023/03/22 06:36:52;;;;;;;11.70;8.83;;;;;;;11.06;91.18;94600.25;5001768;28;20169;-79
2023/03/22 06:39:17;;;;;;;11.57;9.57;;;;;;;11.08;91.25;94595.53;5023003;28;20188;-78
2023/03/22 06:41:43;;;;;;;11.30;8.57;;;;;;;11.09;91.61;94599.78;5016582;28;20172;-79
2023/03/22 06:44:08;;;;;;;10.90;7.40;;;;;;;11.11;91.27;94581.94;5016579;28;20317;-79
2023/03/22 06:46:34;;;;;;;8.20;6.27;;;;;;;11.24;91.03;94603.66;5016838;28;20176;-79
2023/03/22 06:48:59;;;;;;;9.67;6.60;;;;;;;11.26;89.82;94596.34;5022716;28;20572;-79
2023/03/22 06:51:24;;;;;;;9.20;5.87;;;;;;;11.33;89.88;94597.06;5016950;28;20220;-79
2023/03/22 06:53:50;;;;;;;8.80;4.90;;;;;;;11.34;90.00;94576.78;5017097;28;20286;-78
2023/03/22 06:56:16;;;;;;;6.03;4.27;;;;;;;11.53;88.73;94611.84;5018390;28;20200;-78
2023/03/22 06:58:41;;;;;;;4.20;3.43;;;;;;;11.44;88.48;94582.34;5004376;28;20195;-79
2023/03/22 07:01:06;;;;;;;3.63;2.70;;;;;;;11.59;88.00;94603.03;5020053;28;20190;-79
2023/03/22 07:03:32;;;;;;;4.97;3.43;;;;;;;11.68;87.07;94617.50;5016477;28;20203;-79
2023/03/22 07:06:06;;;;;;;4.60;3.60;;;;;;;11.67;86.88;94618.56;5007679;28;20188;-79
2023/03/22 07:08:32;;;;;;;4.80;3.73;;;;;;;11.72;87.10;94622.13;5009353;28;20182;-79
2023/03/22 07:10:58;;;;;;;4.40;3.67;;;;;;;11.80;87.21;94621.03;5016806;28;20183;-79
2023/03/22 07:13:23;;;;;;;6.50;4.27;;;;;;;11.79;87.17;94619.41;5016745;28;20183;-79
2023/03/22 07:15:49;;;;;;;6.43;4.17;;;;;;;11.90;86.65;94625.78;4999013;28;20204;-79
2023/03/22 07:18:14;;;;;;;3.77;3.33;;;;;;;11.91;86.59;94627.38;5016231;28;20183;-79
2023/03/22 07:20:41;;;;;;;8.03;6.40;;;;;;;11.92;86.06;94626.38;5016183;28;20180;-78
2023/03/22 07:23:07;;;;;;;8.67;6.73;;;;;;;11.89;85.18;94630.25;5010694;28;20263;-79
2023/03/22 07:25:33;;;;;;;6.07;4.90;;;;;;;11.77;85.95;94610.13;5021382;28;20177;-79
2023/03/22 07:27:59;;;;;;;5.73;4.20;;;;;;;11.89;85.88;94632.88;5016318;28;20584;-79
2023/03/22 07:30:25;;;;;;;4.90;4.10;;;;;;;11.96;84.66;94641.50;5015920;28;20234;-79
2023/03/22 07:32:51;;;;;;;5.33;3.97;;;;;;;11.87;85.12;94636.75;5016595;28;20169;-79
2023/03/22 07:35:17;;;;;;;5.20;4.27;;;;;;;11.77;86.04;94620.66;5013661;28;20231;-78
2023/03/22 07:37:43;;;;;;;9.90;4.03;;;;;;;11.83;85.61;94633.78;5018838;28;20176;-78
2023/03/22 07:40:09;;;;;;;6.00;4.93;;;;;;;11.82;85.62;94647.19;5011840;28;20185;-78
2023/03/22 07:42:35;;;;;;;9.20;5.70;;;;;;;11.70;86.49;94626.81;5012066;28;20173;-79
2023/03/22 07:45:00;;;;;;;16.53;13.63;;;;;;;11.67;86.32;94639.66;5022359;28;20601;-78
2023/03/22 07:47:26;;;;;;;18.87;16.33;;;;;;;11.67;85.63;94658.91;4995961;28;20184;-78
2023/03/22 07:49:51;;;;;;;18.17;14.40;;;;;;;11.59;84.88;94659.19;5028916;28;20176;-77
2023/03/22 07:52:17;;;;;;;20.77;17.43;;;;;;;11.47;86.03;94641.72;4998458;28;20747;-78
2023/03/22 07:54:42;;;;;;;19.87;16.53;;;;;;;11.55;86.07;94663.31;5015508;28;20638;-78
2023/03/22 07:57:08;;;;;;;18.60;14.53;;;;;;;11.49;86.56;94656.31;5024461;28;20251;-78
2023/03/22 07:59:34;;;;;;;18.40;14.07;;;;;;;11.43;85.83;94659.00;5010598;28;20181;-80
2023/03/22 08:01:59;;;;;;;9.43;7.97;;;;;;;11.29;86.22;94650.44;5011538;28;20185;-79
2023/03/22 08:04:25;;;;;;;13.60;10.68;;;;;;;11.23;87.29;94662.69;5017972;28;20413;-77
2023/03/22 08:06:50;;;;;;;12.67;10.67;;;;;;;11.22;87.49;94662.88;5015923;28;20195;-79
2023/03/22 08:09:16;;;;;;;22.77;10.20;;;;;;;11.20;87.47;94654.41;5022716;28;20191;-79
2023/03/22 08:11:42;;;;;;;19.30;14.40;;;;;;;11.16;87.31;94642.66;5020822;28;20254;-79
2023/03/22 08:14:08;;;;;;;24.70;19.70;;;;;;;11.20;87.36;94630.69;5024578;28;20200;-80
2023/03/22 08:16:34;;;;;;;19.30;14.20;;;;;;;11.40;87.44;94659.44;5005118;28;20631;-79
2023/03/22 08:18:59;;;;;;;19.37;13.80;;;;;;;11.42;87.20;94665.28;5008774;28;20262;-78
2023/03/22 08:21:25;;;;;;;18.13;13.97;;;;;;;11.46;87.29;94662.00;5013936;28;20172;-78
2023/03/22 08:23:50;;;;;;;16.50;12.30;;;;;;;11.42;87.04;94660.81;5009489;28;20648;-78
2023/03/22 08:26:16;;;;;;;19.87;13.90;;;;;;;11.49;87.44;94664.22;5003416;28;20660;-78
2023/03/22 08:28:42;;;;;;;17.53;11.00;;;;;;;11.34;87.62;94642.66;5015052;28;20736;-78
2023/03/22 08:31:13;;;;;;;13.60;9.07;;;;;;;11.44;87.99;94668.50;5015042;28;20663;-79
2023/03/22 08:33:38;;;;;;;11.83;7.03;;;;;;;11.44;87.44;94665.88;5006538;28;20592;-78
2023/03/22 08:36:09;;;;;;;11.83;7.50;;;;;;;11.39;87.12;94650.75;5015215;28;20184;-79
2023/03/22 08:38:35;;;;;;;20.87;10.33;;;;;;;11.52;87.82;94669.00;5015251;28;20184;-80
2023/03/22 08:41:00;;;;;;;14.50;7.63;;;;;;;11.51;87.66;94670.03;5014992;28;20173;-80
2023/03/22 08:43:25;;;;;;;15.60;6.97;;;;;;;11.37;87.85;94657.25;5014037;28;20203;-80
2023/03/22 08:45:51;;;;;;;10.67;6.30;;;;;;;11.28;88.27;94651.47;5017774;28;20199;-81
2023/03/22 08:48:17;;;;;;;8.73;6.03;;;;;;;11.48;88.81;94682.88;5015316;28;20171;-82
2023/03/22 08:50:43;;;;;;;12.60;6.30;;;;;;;11.41;88.67;94680.31;5018649;28;20180;-81
2023/03/22 08:53:10;;;;;;;9.20;6.23;;;;;;;11.39;88.99;94674.47;5013496;28;20204;-79
2023/03/22 08:55:35;;;;;;;8.70;5.97;;;;;;;11.35;89.13;94668.00;5015292;28;20223;-79
2023/03/22 08:58:03;;;;;;;10.47;5.40;;;;;;;11.34;88.60;94650.56;5014125;28;20609;-79
2023/03/22 09:00:29;;;;;;;8.23;5.83;;;;;;;11.49;88.98;94681.84;5022724;28;20176;-78
2023/03/22 09:02:54;;;;;;;12.00;5.80;;;;;;;11.43;89.11;94675.59;5014942;28;21018;-78
2023/03/22 09:05:20;;;;;;;8.33;5.67;;;;;;;11.55;89.00;94688.88;5017072;28;20300;-78
2023/03/22 09:07:45;;;;;;;9.07;6.10;;;;;;;11.39;89.13;94669.19;5007622;28;20188;-78
2023/03/22 09:10:11;;;;;;;7.90;6.10;;;;;;;11.43;89.51;94678.25;4991090;28;20187;-78
2023/03/22 09:12:37;;;;;;;8.83;6.50;;;;;;;11.51;89.29;94682.41;4993199;28;20232;-78
2023/03/22 09:15:03;;;;;;;11.57;7.43;;;;;;;11.57;88.97;94692.91;4995907;28;20204;-79
2023/03/22 09:17:28;;;;;;;10.93;7.50;;;;;;;11.59;88.67;94696.09;5011352;28;20637;-79
2023/03/22 09:19:54;;;;;;;8.13;5.60;;;;;;;11.60;89.10;94689.81;5022135;28;20194;-79
2023/03/22 09:22:19;;;;;;;8.87;6.20;;;;;;;11.57;89.25;94690.25;5008771;28;20183;-81
2023/03/22 09:24:45;;;;;;;8.23;4.73;;;;;;;11.51;89.00;94675.31;5013134;28;20590;-79
2023/03/22 09:27:10;;;;;;;9.53;6.27;;;;;;;11.52;89.11;94676.94;5017380;28;20176;-80
2023/03/22 09:29:36;;;;;;;8.40;5.87;;;;;;;11.48;87.92;94672.34;5017750;28;20180;-78
2023/03/22 09:32:01;;;;;;;7.07;5.30;;;;;;;11.50;87.48;94696.66;5021146;28;20167;-77
2023/03/22 09:34:27;;;;;;;9.47;4.97;;;;;;;11.42;87.15;94687.19;4998720;28;20574;-77
2023/03/22 09:36:52;;;;;;;5.97;4.00;;;;;;;11.28;87.79;94675.19;5020516;28;20585;-77
2023/03/22 09:39:18;;;;;;;7.37;4.37;;;;;;;11.38;88.48;94685.22;5014036;28;20241;-77
2023/03/22 09:41:47;;;;;;;6.20;4.67;;;;;;;11.43;88.70;94680.88;5002802;28;20185;-76
2023/03/22 09:44:35;;;;;;;5.93;4.53;;;;;;;11.51;88.70;94685.84;5009701;28;20939;-77
2023/03/22 09:47:04;;;;;;;11.40;5.60;;;;;;;11.51;88.66;94672.69;4999297;28;20937;-77
2023/03/22 09:49:39;;;;;;;12.37;6.93;;;;;;;11.62;88.13;94693.03;5002061;28;20180;-77
2023/03/22 09:52:12;;;;;;;9.07;5.60;;;;;;;11.68;87.64;94688.69;5013373;28;20227;-77
2023/03/22 09:54:41;;;;;;;11.00;5.60;;;;;;;11.78;87.34;94688.22;5011593;28;20209;-76
2023/03/22 09:57:27;;;;;;;7.53;5.50;;;;;;;11.77;86.80;94676.03;5003545;28;20177;-77
2023/03/22 10:00:17;;;;;;;9.03;5.50;;;;;;;11.90;86.99;94689.09;5013937;28;20267;-77
2023/03/22 10:02:45;;;;;;;7.23;4.87;;;;;;;11.94;86.62;94690.22;5018646;28;20252;-77
2023/03/22 10:05:27;;;;;;;15.77;5.90;;;;;;;11.96;86.18;94683.72;5019079;28;20199;-77
2023/03/22 10:08:15;;;;;;;13.47;6.90;;;;;;;11.98;86.29;94696.69;5015959;28;20176;-77
2023/03/22 10:10:41;;;;;;;8.83;6.13;;;;;;;12.04;87.07;94696.59;4986868;28;20644;-77
2023/03/22 10:13:35;;;;;;;5.30;4.10;;;;;;;12.10;87.06;94694.91;5014695;28;20176;-79
2023/03/22 10:16:09;;;;;;;4.27;3.13;;;;;;;12.11;86.54;94696.50;5012458;28;20207;-78
2023/03/22 10:18:46;;;;;;;3.57;3.13;;;;;;;11.94;86.47;94669.94;5016414;28;20245;-78
2023/03/22 10:21:14;;;;;;;8.93;4.20;;;;;;;12.16;86.56;94695.84;5000550;28;20188;-77
2023/03/22 10:23:55;;;;;;;6.63;4.90;;;;;;;12.21;86.40;94698.59;5012312;28;20648;-77
2023/03/22 10:26:29;;;;;;;8.07;5.97;;;;;;;12.00;86.46;94669.06;5010810;28;20188;-77
2023/03/22 10:29:02;;;;;;;7.80;5.67;;;;;;;12.20;86.46;94699.63;5020286;28;20244;-77
2023/03/22 10:31:29;;;;;;;17.50;10.17;;;;;;;12.20;86.31;94704.91;5025877;28;20270;-77
2023/03/22 10:34:04;;;;;;;15.10;10.30;;;;;;;12.20;86.32;94702.25;5033383;28;20172;-77
2023/03/22 10:36:33;;;;;;;10.83;7.60;;;;;;;12.23;85.45;94704.47;5001524;28;20237;-77
2023/03/22 10:39:11;;;;;;;11.03;6.27;;;;;;;12.18;84.72;94697.22;5002363;28;20172;-77
2023/03/22 10:41:38;;;;;;;8.70;5.37;;;;;;;12.23;84.17;94702.63;5029513;28;20234;-77
2023/03/22 10:44:05;;;;;;;8.43;4.00;;;;;;;12.14;84.42;94685.50;5006596;28;20823;-77
2023/03/22 10:46:36;;;;;;;5.00;3.40;;;;;;;12.21;82.94;94695.97;5020584;28;20269;-77
2023/03/22 10:49:03;;;;;;;7.27;4.13;;;;;;;12.01;83.22;94673.31;5015322;28;20185;-77
2023/03/22 10:51:41;;;;;;;7.33;5.07;;;;;;;12.07;83.38;94682.16;5009406;28;20305;-77
2023/03/22 10:54:13;;;;;;;10.60;5.93;;;;;;;12.20;83.10;94694.34;5017314;28;20211;-77
2023/03/22 10:56:38;;;;;;;6.03;4.17;;;;;;;12.13;82.68;94689.16;5017640;28;20180;-77
2023/03/22 10:59:04;;;;;;;3.60;2.90;;;;;;;12.17;82.29;94698.25;5019265;28;20180;-79
2023/03/22 11:01:32;;;;;;;5.47;3.80;;;;;;;12.15;82.83;94695.03;5018481;28;20187;-77
2023/03/22 11:04:07;;;;;;;4.33;3.03;;;;;;;12.09;83.02;94685.38;4999190;28;20246;-77
2023/03/22 11:06:38;;;;;;;3.10;2.47;;;;;;;12.12;83.14;94690.19;5002622;28;20176;-77
2023/03/22 11:09:12;;;;;;;3.40;2.50;;;;;;;12.17;82.49;94700.91;5023879;28;20179;-77
2023/03/22 11:11:48;;;;;;;4.93;2.67;;;;;;;12.13;82.56;94702.34;5024963;28;20207;-77
2023/03/22 11:14:41;;;;;;;4.97;3.97;;;;;;;12.12;82.21;94695.47;5025451;28;20205;-77
2023/03/22 11:17:20;;;;;;;4.83;3.13;;;;;;;12.11;83.44;94698.34;5010345;28;20185;-78
2023/03/22 11:19:56;;;;;;;7.40;5.03;;;;;;;12.11;84.07;94699.13;5015892;28;20173;-77
2023/03/22 11:22:36;;;;;;;7.80;5.17;;;;;;;12.04;84.23;94695.78;5018234;28;20179;-77
2023/03/22 11:25:05;;;;;;;8.30;5.77;;;;;;;12.00;84.02;94686.72;4998346;28;20198;-77
2023/03/22 11:27:33;;;;;;;13.60;6.90;;;;;;;12.04;83.96;94693.13;5009701;28;20185;-77
2023/03/22 11:30:28;;;;;;;15.93;10.10;;;;;;;11.95;84.67;94684.72;5012381;28;20202;-77
2023/03/22 11:33:08;;;;;;;19.13;11.50;;;;;;;12.01;85.12;94683.06;4991374;28;20290;-77
2023/03/22 11:35:37;;;;;;;15.30;7.10;;;;;;;11.94;85.91;94669.94;5002727;28;20216;-77
2023/03/22 11:38:03;;;;;;;14.23;6.97;;;;;;;11.95;86.07;94668.91;5006288;28;20279;-76
2023/03/22 11:40:32;;;;;;;11.23;5.97;;;;;;;12.05;86.48;94681.56;5007590;28;20704;-76
2023/03/22 11:43:14;;;;;;;13.17;6.93;;;;;;;12.09;86.30;94685.38;5003965;28;20185;-76